Terminal Aerodrome Forecast
Issued by NWS

Home | Current Version | Previous Version | Text Only | Print | Product List | Glossary On
Versions: 1 2 3 4 5 6 7 8 9 10 11 12 13 14 15 16 17 18 19 20 21 22 23 24 25 26 27 28 29 30 31
000
FTUS43 KDVN 051446 AAB
TAFCID
TAF AMD
KCID 051446Z 0515/0612 13005KT 1/4SM FG OVC007
      TEMPO 0515/0517 2SM BR OVC010
     FM051700 09010KT P6SM OVC012
     FM052000 10008KT P6SM VCSH BKN040
     FM052300 11007KT P6SM BKN070=

USA.gov is the U.S. government's official web portal to all federal, state and local government web resources and services.